Galileia, Brazil
Current Conditions -  °F | °C
As of 12:00 PM on Friday 19 Dec 2014 (Local Time) from SBIP Reporting Station
Scattered Clouds Scattered Clouds  
Wind Chill: 86°   Ceiling: Unl
Heat Index: 88°   Visibility: 6mi
Dew Point: 66°   Wind: 6mph
Humidity: 51%   Direction: 60°ENE
Pressure: 29.91"   Gusts: NA
Location:  19°S, 41.54°W
Report Text: SBIP 191400Z 06005KT 9999 FEW015 SCT035 30/19 Q1013
Loading
Personal Weather Stations






























Interactive Weather Map New forecast layout! Learn more

10-Day Weather Forecast

Advertisements
Track Severe Weather on mobile